Time;durP1;ratioP1;P1;durP2;ratioP2;P2;SDS_P1;SDS_P2;PMS_P1;PMS_P2;Temp;Humidity;BMP_temperature;BMP_pressure;BME280_temperature;BME280_humidity;BME280_pressure;Samples;Min_cycle;Max_cycle;Signal;HPM_P1;HPM_P2
2022/09/13 00:00:06;;;;;;;3.97;3.57;;;18.60;99.90;;;;;;5050572;28;20189;-50
2022/09/13 00:02:31;;;;;;;3.50;3.20;;;18.60;99.90;;;;;;5049710;28;20221;-49
2022/09/13 00:04:57;;;;;;;3.60;3.30;;;18.50;99.90;;;;;;5048815;28;20594;-49
2022/09/13 00:07:23;;;;;;;6.40;3.53;;;18.50;99.90;;;;;;5050542;28;20194;-50
2022/09/13 00:09:48;;;;;;;5.10;3.67;;;18.60;99.90;;;;;;5050539;28;20190;-51
2022/09/13 00:12:14;;;;;;;5.07;3.60;;;18.60;99.90;;;;;;5050297;28;20216;-48
2022/09/13 00:14:40;;;;;;;3.13;2.93;;;18.60;99.90;;;;;;5049115;28;20661;-50
2022/09/13 00:17:06;;;;;;;3.33;3.13;;;18.60;99.90;;;;;;5049288;28;20559;-49
2022/09/13 00:19:32;;;;;;;3.07;2.77;;;18.60;99.90;;;;;;5053510;28;20185;-50
2022/09/13 00:21:58;;;;;;;3.33;3.13;;;18.60;99.90;;;;;;5055409;28;20491;-50
2022/09/13 00:24:24;;;;;;;5.33;3.57;;;18.50;99.90;;;;;;5049726;28;20432;-52
2022/09/13 00:26:49;;;;;;;4.07;3.70;;;18.50;99.90;;;;;;5050214;28;20194;-52
2022/09/13 00:29:15;;;;;;;3.43;3.03;;;18.50;99.90;;;;;;5050263;28;20727;-51
2022/09/13 00:31:41;;;;;;;3.33;3.03;;;18.50;99.90;;;;;;5050071;28;20185;-48
2022/09/13 00:34:07;;;;;;;4.10;3.10;;;18.50;99.90;;;;;;5049206;28;20285;-49
2022/09/13 00:36:32;;;;;;;3.00;2.80;;;18.50;99.90;;;;;;5050078;28;20208;-53
2022/09/13 00:38:59;;;;;;;4.27;3.30;;;18.60;99.90;;;;;;5050016;28;20193;-50
2022/09/13 00:41:25;;;;;;;3.60;3.27;;;18.60;99.90;;;;;;5049886;28;20294;-48
2022/09/13 00:43:57;;;;;;;3.90;3.20;;;18.60;99.90;;;;;;5049393;28;20507;-49
2022/09/13 00:46:32;;;;;;;4.33;3.10;;;18.60;99.90;;;;;;5050224;28;20204;-47
2022/09/13 00:49:06;;;;;;;3.40;3.10;;;18.60;99.90;;;;;;5050129;28;20570;-52
2022/09/13 00:51:32;;;;;;;3.70;3.30;;;18.70;99.90;;;;;;5049953;28;20509;-49
2022/09/13 00:53:59;;;;;;;3.70;2.83;;;18.70;99.90;;;;;;5048463;28;20922;-49
2022/09/13 00:56:33;;;;;;;2.90;2.70;;;18.70;99.90;;;;;;5049366;28;20197;-51
2022/09/13 00:59:11;;;;;;;3.00;2.80;;;18.70;99.90;;;;;;5049812;28;20602;-50
2022/09/13 01:01:46;;;;;;;3.90;3.10;;;18.70;99.90;;;;;;5049867;28;20464;-50
2022/09/13 01:04:12;;;;;;;3.30;3.00;;;18.80;99.90;;;;;;5049099;28;20432;-52
2022/09/13 01:06:40;;;;;;;3.57;3.27;;;18.90;99.90;;;;;;5049694;28;20424;-51
2022/09/13 01:09:06;;;;;;;3.30;2.70;;;18.90;99.90;;;;;;5049492;28;20465;-50
2022/09/13 01:11:47;;;;;;;3.33;2.87;;;18.90;99.90;;;;;;5049837;28;20429;-49
2022/09/13 01:14:15;;;;;;;2.87;2.67;;;19.00;99.90;;;;;;5049165;28;20872;-49
2022/09/13 01:16:41;;;;;;;2.60;2.40;;;19.00;99.90;;;;;;5049690;28;20483;-51
2022/09/13 01:19:06;;;;;;;4.43;3.50;;;19.00;99.90;;;;;;5049734;28;20455;-48
2022/09/13 01:21:59;;;;;;;3.63;3.10;;;19.00;99.90;;;;;;5058402;28;20580;-50
2022/09/13 01:24:33;;;;;;;3.97;3.23;;;19.00;99.90;;;;;;5048912;28;20689;-50
2022/09/13 01:27:23;;;;;;;2.93;2.63;;;19.00;99.90;;;;;;5049720;28;20900;-50
2022/09/13 01:30:10;;;;;;;3.57;3.27;;;19.00;99.90;;;;;;5049366;28;20484;-50
2022/09/13 01:32:55;;;;;;;6.73;2.97;;;18.90;99.90;;;;;;5049249;28;20482;-52
2022/09/13 01:35:44;;;;;;;3.20;2.90;;;19.00;99.90;;;;;;5049424;28;20424;-50
2022/09/13 01:38:17;;;;;;;3.80;3.10;;;19.00;99.90;;;;;;5049207;28;20423;-51
2022/09/13 01:40:59;;;;;;;4.67;2.77;;;19.00;99.90;;;;;;5049537;28;20529;-50
2022/09/13 01:43:49;;;;;;;2.70;2.50;;;19.00;99.90;;;;;;5048792;28;20428;-52
2022/09/13 01:46:23;;;;;;;4.20;2.90;;;19.00;99.90;;;;;;5050243;28;20416;-51
2022/09/13 01:49:17;;;;;;;5.60;3.73;;;19.10;99.90;;;;;;5053402;28;20825;-50
2022/09/13 01:51:53;;;;;;;3.83;3.20;;;19.00;99.90;;;;;;5053067;28;20423;-52
2022/09/13 01:54:42;;;;;;;4.80;3.27;;;19.00;99.90;;;;;;5051732;28;20462;-50
2022/09/13 01:57:36;;;;;;;2.80;2.60;;;19.00;99.90;;;;;;5053340;28;20428;-49
2022/09/13 02:00:09;;;;;;;3.37;2.90;;;18.90;99.90;;;;;;5053028;28;20451;-49
2022/09/13 02:02:41;;;;;;;3.13;2.83;;;18.90;99.90;;;;;;5052683;28;20491;-50
2022/09/13 02:05:16;;;;;;;3.30;3.00;;;18.90;99.90;;;;;;5052824;28;20828;-53
2022/09/13 02:07:49;;;;;;;3.23;2.93;;;18.90;99.90;;;;;;5052801;28;20991;-50
2022/09/13 02:10:23;;;;;;;3.07;2.83;;;18.90;99.90;;;;;;5052997;28;20526;-51
2022/09/13 02:12:51;;;;;;;3.40;2.63;;;18.90;99.90;;;;;;5052159;28;20436;-51
2022/09/13 02:15:28;;;;;;;5.93;3.20;;;18.90;99.90;;;;;;5052641;28;20942;-50
2022/09/13 02:18:10;;;;;;;3.80;3.17;;;19.00;99.90;;;;;;5052664;28;20420;-50
2022/09/13 02:20:40;;;;;;;3.90;3.00;;;18.90;99.90;;;;;;5062581;28;20445;-51
2022/09/13 02:23:43;;;;;;;4.03;2.93;;;18.90;99.90;;;;;;5052103;28;20428;-51
2022/09/13 02:26:13;;;;;;;3.50;3.00;;;18.90;99.90;;;;;;5052254;28;20436;-50
2022/09/13 02:28:46;;;;;;;3.87;2.43;;;19.00;99.90;;;;;;5052598;28;21149;-52
2022/09/13 02:31:15;;;;;;;4.37;3.10;;;19.00;99.90;;;;;;5052401;28;20432;-54
2022/09/13 02:33:48;;;;;;;3.57;3.13;;;19.00;99.90;;;;;;5051849;28;20486;-52
2022/09/13 02:36:24;;;;;;;3.40;3.20;;;19.00;99.90;;;;;;5052483;28;20503;-48
2022/09/13 02:38:59;;;;;;;3.50;3.20;;;18.90;99.90;;;;;;5052268;28;21098;-55
2022/09/13 02:41:32;;;;;;;4.43;2.90;;;19.00;99.90;;;;;;5052063;28;20462;-50
2022/09/13 02:44:10;;;;;;;6.33;3.40;;;18.90;99.90;;;;;;5051758;28;20424;-53
2022/09/13 02:46:49;;;;;;;3.70;3.00;;;18.90;99.90;;;;;;5051970;28;20428;-53
2022/09/13 02:49:30;;;;;;;4.40;3.20;;;18.90;99.90;;;;;;5051863;28;20934;-48
2022/09/13 02:52:22;;;;;;;3.37;3.07;;;19.00;99.90;;;;;;5050766;28;20427;-50
2022/09/13 02:54:56;;;;;;;3.83;3.20;;;18.90;99.90;;;;;;5049656;28;20427;-52
2022/09/13 02:57:45;;;;;;;3.27;2.97;;;19.00;99.90;;;;;;5051184;28;20420;-53
2022/09/13 03:00:11;;;;;;;4.37;3.37;;;19.00;99.90;;;;;;5051996;28;20459;-51
2022/09/13 03:02:38;;;;;;;5.27;2.90;;;18.90;99.90;;;;;;5051392;28;21051;-49
2022/09/13 03:05:04;;;;;;;2.93;2.73;;;19.00;99.90;;;;;;5051647;28;20542;-51
2022/09/13 03:07:30;;;;;;;3.90;3.00;;;18.90;99.90;;;;;;5051666;28;20427;-50
2022/09/13 03:10:00;;;;;;;3.00;2.73;;;18.90;99.90;;;;;;5051529;28;20455;-48
2022/09/13 03:12:56;;;;;;;3.13;2.83;;;18.90;99.90;;;;;;5050068;28;20212;-49
2022/09/13 03:15:44;;;;;;;3.33;2.70;;;18.90;99.90;;;;;;5051696;28;20432;-52
2022/09/13 03:18:34;;;;;;;3.37;2.77;;;18.90;99.90;;;;;;5051406;28;20423;-50
2022/09/13 03:21:21;;;;;;;4.57;3.10;;;18.90;99.90;;;;;;5062019;28;20475;-53
2022/09/13 03:24:11;;;;;;;2.70;2.50;;;18.90;99.90;;;;;;5050773;28;21868;-52
2022/09/13 03:27:06;;;;;;;3.00;2.80;;;18.90;99.90;;;;;;5051237;28;20800;-52
2022/09/13 03:29:52;;;;;;;3.47;3.10;;;18.90;99.90;;;;;;5064011;28;20538;-54
2022/09/13 03:32:17;;;;;;;3.50;3.00;;;18.90;99.90;;;;;;5050625;28;20562;-50
2022/09/13 03:35:07;;;;;;;3.00;2.73;;;18.90;99.90;;;;;;5050319;28;20437;-49
2022/09/13 03:37:47;;;;;;;3.87;3.00;;;19.00;99.90;;;;;;5050019;28;20656;-50
2022/09/13 03:40:20;;;;;;;3.10;2.80;;;19.00;99.90;;;;;;5050976;28;20427;-50
2022/09/13 03:43:00;;;;;;;3.03;2.80;;;19.10;99.90;;;;;;5050672;28;20475;-50
2022/09/13 03:45:30;;;;;;;4.10;2.90;;;19.10;99.90;;;;;;5051017;28;20465;-50
2022/09/13 03:47:57;;;;;;;3.83;3.00;;;19.10;99.90;;;;;;5051141;28;20474;-52
2022/09/13 03:50:25;;;;;;;2.83;2.63;;;19.10;99.90;;;;;;5050918;28;20500;-51
2022/09/13 03:52:58;;;;;;;3.23;2.70;;;19.10;99.90;;;;;;5049573;28;20416;-48
2022/09/13 03:55:25;;;;;;;2.97;2.70;;;19.10;99.90;;;;;;5050711;28;20470;-51
2022/09/13 03:57:50;;;;;;;3.33;3.03;;;19.10;99.90;;;;;;5050634;28;20412;-49
2022/09/13 04:00:17;;;;;;;3.50;3.20;;;19.00;99.90;;;;;;5050249;28;20412;-52
2022/09/13 04:02:42;;;;;;;3.50;3.20;;;19.00;99.90;;;;;;5048952;28;20226;-50
2022/09/13 04:05:08;;;;;;;5.00;3.17;;;19.00;99.90;;;;;;5049676;28;20457;-48
2022/09/13 04:07:34;;;;;;;5.40;2.70;;;19.00;99.90;;;;;;5050216;28;20190;-50
2022/09/13 04:10:00;;;;;;;4.90;3.30;;;19.00;99.90;;;;;;5050064;28;20181;-49
2022/09/13 04:12:27;;;;;;;3.47;3.17;;;18.90;99.90;;;;;;5050127;28;20190;-54
2022/09/13 04:14:52;;;;;;;3.40;3.10;;;18.90;99.90;;;;;;5050060;28;20542;-49
2022/09/13 04:17:18;;;;;;;4.03;3.13;;;18.80;99.90;;;;;;5049386;28;20428;-48
2022/09/13 04:19:45;;;;;;;3.90;3.50;;;18.80;99.90;;;;;;5056930;28;20696;-49
2022/09/13 04:22:12;;;;;;;4.47;2.90;;;18.70;99.90;;;;;;5054217;28;20220;-48
2022/09/13 04:24:38;;;;;;;3.97;3.23;;;18.70;99.90;;;;;;5049678;28;20904;-49
2022/09/13 04:27:04;;;;;;;3.03;2.73;;;18.60;99.90;;;;;;5049975;28;20419;-50
2022/09/13 04:29:31;;;;;;;5.03;3.10;;;18.60;99.90;;;;;;5050443;28;20416;-50
2022/09/13 04:31:57;;;;;;;5.17;3.13;;;18.70;99.90;;;;;;5050026;28;20423;-50
2022/09/13 04:34:23;;;;;;;5.67;3.40;;;18.60;99.90;;;;;;5049760;28;20424;-49
2022/09/13 04:36:51;;;;;;;4.67;3.33;;;18.60;99.90;;;;;;5050060;28;20468;-53
2022/09/13 04:39:17;;;;;;;3.63;3.33;;;18.60;99.90;;;;;;5050074;28;20186;-51
2022/09/13 04:41:47;;;;;;;3.10;2.77;;;18.60;99.90;;;;;;5049750;28;20456;-49
2022/09/13 04:44:16;;;;;;;4.07;3.17;;;18.60;99.90;;;;;;5049544;28;20511;-52
2022/09/13 04:46:45;;;;;;;3.33;3.03;;;18.50;99.90;;;;;;5049922;28;20439;-49
2022/09/13 04:49:10;;;;;;;3.30;2.77;;;18.50;99.90;;;;;;5050197;28;20455;-48
2022/09/13 04:51:36;;;;;;;4.67;3.40;;;18.50;99.90;;;;;;5044334;28;20531;-52
2022/09/13 04:54:02;;;;;;;3.40;3.00;;;18.50;99.90;;;;;;5039281;28;20186;-48
2022/09/13 04:56:28;;;;;;;3.40;3.10;;;18.50;99.90;;;;;;5044673;28;20420;-49
2022/09/13 04:58:55;;;;;;;3.57;3.27;;;18.40;99.90;;;;;;5049962;28;20250;-48
2022/09/13 05:01:22;;;;;;;4.03;3.20;;;18.40;99.90;;;;;;5049804;28;20241;-49
2022/09/13 05:03:50;;;;;;;3.47;3.17;;;18.40;99.90;;;;;;5049248;28;20465;-47
2022/09/13 05:06:16;;;;;;;3.30;3.00;;;18.40;99.90;;;;;;5048232;28;20436;-51
2022/09/13 05:08:43;;;;;;;4.03;3.10;;;18.40;99.90;;;;;;5048939;28;20574;-52
2022/09/13 05:11:09;;;;;;;3.87;3.47;;;18.30;99.90;;;;;;5049633;28;20416;-48
2022/09/13 05:13:35;;;;;;;3.40;3.10;;;18.30;99.90;;;;;;5049323;28;20420;-51
2022/09/13 05:16:04;;;;;;;3.40;3.10;;;18.30;99.90;;;;;;5049728;28;20545;-50
2022/09/13 05:18:32;;;;;;;3.80;3.50;;;18.40;99.90;;;;;;5049627;28;20741;-50
2022/09/13 05:20:59;;;;;;;4.23;3.57;;;18.40;99.90;;;;;;5063296;28;20467;-53
2022/09/13 05:23:26;;;;;;;4.10;3.57;;;18.40;99.90;;;;;;5053208;28;20816;-48
2022/09/13 05:25:56;;;;;;;4.20;3.33;;;18.40;99.90;;;;;;5060084;28;20423;-51
2022/09/13 05:28:23;;;;;;;3.97;3.40;;;18.40;99.90;;;;;;5073556;28;20411;-48
2022/09/13 05:30:59;;;;;;;3.73;3.43;;;18.40;99.90;;;;;;5073572;28;20523;-52
2022/09/13 05:33:27;;;;;;;3.87;2.73;;;18.40;99.90;;;;;;5071384;28;20426;-52
2022/09/13 05:35:53;;;;;;;3.50;3.20;;;18.40;99.90;;;;;;5073444;28;20605;-49
2022/09/13 05:38:20;;;;;;;4.43;3.27;;;18.40;99.90;;;;;;5073366;28;20473;-49
2022/09/13 05:40:46;;;;;;;3.70;3.40;;;18.40;99.90;;;;;;5071301;28;20459;-49
2022/09/13 05:43:12;;;;;;;3.13;2.80;;;18.40;99.90;;;;;;5052504;28;20435;-47
2022/09/13 05:45:38;;;;;;;5.13;3.40;;;18.50;99.90;;;;;;5051805;28;20421;-48
2022/09/13 05:48:03;;;;;;;3.67;3.17;;;18.50;99.90;;;;;;5042088;28;20416;-48
2022/09/13 05:50:29;;;;;;;3.40;3.10;;;18.50;99.90;;;;;;5053327;28;20426;-49
2022/09/13 05:52:55;;;;;;;3.00;2.70;;;18.50;99.90;;;;;;5050341;28;20194;-46
2022/09/13 05:55:21;;;;;;;3.70;3.27;;;18.50;99.90;;;;;;5052752;28;20296;-47
2022/09/13 05:57:48;;;;;;;3.70;3.40;;;18.50;99.90;;;;;;5047518;28;20221;-53
2022/09/13 06:00:14;;;;;;;3.10;2.90;;;18.50;99.90;;;;;;5052284;28;20435;-49
2022/09/13 06:02:41;;;;;;;3.43;3.00;;;18.60;99.90;;;;;;5052222;28;20463;-52
2022/09/13 06:05:09;;;;;;;3.27;2.97;;;18.60;99.90;;;;;;5052641;28;20962;-50
2022/09/13 06:07:35;;;;;;;4.03;3.43;;;18.60;99.90;;;;;;5052811;28;20428;-49
2022/09/13 06:10:01;;;;;;;4.33;3.10;;;18.60;99.90;;;;;;5052776;28;20474;-49
2022/09/13 06:12:27;;;;;;;7.70;3.13;;;18.70;99.90;;;;;;5052510;28;20921;-51
2022/09/13 06:14:53;;;;;;;5.30;3.10;;;18.80;99.90;;;;;;5047787;28;20431;-52
2022/09/13 06:17:18;;;;;;;4.13;3.73;;;18.80;99.90;;;;;;5052301;28;20205;-52
2022/09/13 06:19:44;;;;;;;3.40;3.10;;;18.80;99.90;;;;;;5052763;28;20216;-50
2022/09/13 06:22:09;;;;;;;4.00;3.30;;;18.70;99.90;;;;;;5051609;28;20286;-54
2022/09/13 06:24:38;;;;;;;4.20;3.40;;;18.70;99.90;;;;;;5051037;28;20189;-50
2022/09/13 06:27:03;;;;;;;4.93;3.57;;;18.70;99.90;;;;;;5052453;28;20200;-50
2022/09/13 06:29:29;;;;;;;4.83;3.10;;;18.70;99.90;;;;;;5052185;28;20413;-51
2022/09/13 06:31:55;;;;;;;4.03;3.70;;;18.70;99.90;;;;;;5051080;28;20193;-51
2022/09/13 06:34:21;;;;;;;4.03;3.23;;;18.70;99.90;;;;;;5052122;28;20269;-52
2022/09/13 06:36:46;;;;;;;6.67;4.03;;;18.80;99.90;;;;;;5053543;28;20263;-48
2022/09/13 06:39:12;;;;;;;12.67;3.53;;;18.80;99.90;;;;;;5050590;28;20552;-49
2022/09/13 06:41:38;;;;;;;3.97;3.57;;;18.80;99.90;;;;;;5052331;28;20241;-50
2022/09/13 06:44:04;;;;;;;5.17;3.50;;;18.90;99.90;;;;;;5049918;28;20205;-48
2022/09/13 06:46:32;;;;;;;3.60;3.30;;;18.90;99.90;;;;;;5051715;28;20244;-49
2022/09/13 06:48:59;;;;;;;3.80;3.33;;;18.90;99.90;;;;;;5061730;28;20487;-48
2022/09/13 06:51:26;;;;;;;4.07;3.20;;;18.90;99.90;;;;;;5072167;28;20424;-50
2022/09/13 06:53:55;;;;;;;3.97;3.47;;;18.90;99.90;;;;;;5070042;28;20419;-48
2022/09/13 06:56:47;;;;;;;4.27;3.70;;;18.90;99.90;;;;;;5061455;28;20455;-49
2022/09/13 06:59:12;;;;;;;4.20;3.83;;;18.90;99.90;;;;;;5047558;28;20444;-49
2022/09/13 07:01:42;;;;;;;3.97;3.50;;;18.90;99.90;;;;;;5051484;28;20471;-49
2022/09/13 07:04:13;;;;;;;5.43;3.60;;;18.90;99.90;;;;;;5050803;28;20548;-50
2022/09/13 07:06:41;;;;;;;3.83;3.53;;;18.90;99.90;;;;;;5050189;28;20424;-50
2022/09/13 07:09:10;;;;;;;4.70;3.67;;;18.90;99.90;;;;;;5051536;28;20429;-53
2022/09/13 07:11:38;;;;;;;3.30;3.00;;;18.90;99.90;;;;;;5050630;28;20416;-47
2022/09/13 07:14:08;;;;;;;4.47;3.50;;;19.00;99.90;;;;;;5050121;28;20495;-49
2022/09/13 07:16:36;;;;;;;4.07;3.67;;;19.00;99.90;;;;;;5050639;28;20864;-52
2022/09/13 07:19:05;;;;;;;4.57;3.57;;;19.20;99.90;;;;;;5052129;28;20429;-52
2022/09/13 07:21:32;;;;;;;3.60;3.00;;;19.30;99.90;;;;;;5059958;28;21085;-52
2022/09/13 07:23:58;;;;;;;3.30;2.83;;;19.30;99.90;;;;;;5050391;28;20429;-49
2022/09/13 07:26:26;;;;;;;5.93;3.13;;;19.30;99.90;;;;;;5051385;28;20423;-50
2022/09/13 07:28:54;;;;;;;3.60;3.10;;;19.40;99.90;;;;;;5050984;28;20421;-53
2022/09/13 07:31:24;;;;;;;3.80;3.30;;;19.40;99.90;;;;;;5051790;28;20444;-50
2022/09/13 07:33:58;;;;;;;5.50;3.20;;;19.40;99.90;;;;;;5068779;28;20427;-51
2022/09/13 07:36:25;;;;;;;3.70;2.90;;;19.40;99.90;;;;;;5070782;28;20415;-50
2022/09/13 07:38:51;;;;;;;4.77;3.40;;;19.50;99.90;;;;;;5071198;28;20438;-52
2022/09/13 07:41:19;;;;;;;4.33;3.30;;;19.50;99.90;;;;;;5070804;28;20467;-47
2022/09/13 07:43:45;;;;;;;4.00;2.90;;;19.50;99.90;;;;;;5050135;28;20428;-49
2022/09/13 07:46:14;;;;;;;5.17;3.23;;;19.70;99.90;;;;;;5050706;28;20423;-50
2022/09/13 07:48:42;;;;;;;3.70;3.40;;;19.80;99.90;;;;;;5049643;28;20416;-51
2022/09/13 07:51:12;;;;;;;7.77;3.23;;;20.00;99.90;;;;;;5048859;28;20408;-50
2022/09/13 07:53:39;;;;;;;7.03;3.50;;;20.10;99.90;;;;;;5048481;28;20512;-49
2022/09/13 07:56:13;;;;;;;4.10;3.17;;;20.10;99.90;;;;;;5050787;28;20762;-49
2022/09/13 07:58:40;;;;;;;3.33;3.03;;;20.10;99.90;;;;;;5041057;28;20429;-52
2022/09/13 08:01:23;;;;;;;3.97;3.03;;;20.00;99.90;;;;;;5047478;28;20543;-51
2022/09/13 08:03:57;;;;;;;4.87;3.53;;;20.10;99.90;;;;;;5050018;28;20443;-51
2022/09/13 08:06:25;;;;;;;4.60;3.40;;;20.10;99.90;;;;;;5049621;28;20467;-54
2022/09/13 08:08:51;;;;;;;4.93;3.20;;;20.10;99.90;;;;;;5050223;28;20499;-52
2022/09/13 08:11:35;;;;;;;4.67;3.33;;;20.20;99.90;;;;;;5050551;28;20822;-48
2022/09/13 08:14:02;;;;;;;5.50;3.17;;;20.20;99.90;;;;;;5049410;28;20464;-51
2022/09/13 08:16:29;;;;;;;6.27;3.27;;;20.20;99.90;;;;;;5050526;28;20517;-49
2022/09/13 08:18:57;;;;;;;3.70;2.97;;;20.30;99.90;;;;;;5050666;28;20416;-53
2022/09/13 08:21:24;;;;;;;3.10;2.80;;;20.30;99.90;;;;;;5060227;28;20452;-51
2022/09/13 08:23:59;;;;;;;5.53;3.47;;;20.30;99.90;;;;;;5049936;28;20451;-49
2022/09/13 08:26:29;;;;;;;4.57;3.93;;;20.30;99.90;;;;;;5049993;28;20827;-50
2022/09/13 08:28:57;;;;;;;3.80;3.23;;;20.40;99.90;;;;;;5050412;28;21217;-53
2022/09/13 08:31:23;;;;;;;4.00;3.20;;;20.50;99.90;;;;;;5050199;28;21002;-50
2022/09/13 08:33:48;;;;;;;4.47;4.07;;;20.60;99.90;;;;;;5049665;28;20503;-53
2022/09/13 08:36:15;;;;;;;4.33;3.50;;;20.70;99.90;;;;;;5049912;28;20420;-51
2022/09/13 08:38:49;;;;;;;5.00;4.20;;;20.80;99.90;;;;;;5050212;28;20199;-53
2022/09/13 08:41:46;;;;;;;3.80;3.50;;;20.90;99.90;;;;;;5049836;28;20538;-47
2022/09/13 08:44:28;;;;;;;3.60;3.30;;;21.00;99.90;;;;;;5049525;28;20420;-49
2022/09/13 08:47:27;;;;;;;3.60;3.30;;;21.20;99.90;;;;;;5049960;28;20507;-47
2022/09/13 08:50:17;;;;;;;4.60;3.67;;;21.30;99.90;;;;;;5049994;28;20408;-49
2022/09/13 08:53:03;;;;;;;4.73;3.90;;;21.40;99.90;;;;;;5049254;28;20527;-52
2022/09/13 08:55:29;;;;;;;3.90;3.60;;;21.50;99.90;;;;;;5052421;28;20829;-51
2022/09/13 08:58:12;;;;;;;4.60;3.40;;;21.50;99.90;;;;;;5049473;28;20531;-49
2022/09/13 09:00:46;;;;;;;4.80;3.80;;;21.60;99.90;;;;;;5049835;28;20524;-52
2022/09/13 09:03:28;;;;;;;5.17;3.80;;;21.60;99.90;;;;;;5049295;28;20748;-47
2022/09/13 09:05:53;;;;;;;4.70;3.90;;;21.70;99.90;;;;;;5047719;28;20440;-49
2022/09/13 09:08:46;;;;;;;4.50;4.07;;;21.70;99.90;;;;;;5049461;28;20432;-51
2022/09/13 09:11:40;;;;;;;4.43;4.03;;;21.70;99.90;;;;;;5049655;28;20198;-49
2022/09/13 09:14:24;;;;;;;4.90;4.50;;;21.80;99.90;;;;;;5049042;28;20423;-50
2022/09/13 09:16:55;;;;;;;6.10;4.63;;;21.80;99.90;;;;;;5049756;28;20465;-49
2022/09/13 09:19:33;;;;;;;5.17;4.43;;;21.80;99.90;;;;;;5053297;28;20438;-49
2022/09/13 09:22:00;;;;;;;4.80;4.13;;;21.90;99.90;;;;;;5054663;28;20957;-49
2022/09/13 09:24:26;;;;;;;5.80;4.40;;;22.00;99.90;;;;;;5049049;28;20465;-49
2022/09/13 09:26:56;;;;;;;4.37;3.20;;;22.10;99.90;;;;;;5049332;28;20420;-54
2022/09/13 09:29:24;;;;;;;4.80;4.30;;;22.20;99.90;;;;;;5049968;28;20532;-53
2022/09/13 09:31:58;;;;;;;5.53;4.37;;;22.40;99.90;;;;;;5049686;28;20448;-49
2022/09/13 09:34:44;;;;;;;7.97;5.70;;;22.40;99.90;;;;;;5048920;28;20499;-49
2022/09/13 09:37:15;;;;;;;7.10;4.37;;;22.50;99.90;;;;;;5049405;28;20794;-53
2022/09/13 09:39:42;;;;;;;6.80;5.77;;;22.50;99.90;;;;;;5049484;28;20490;-52
2022/09/13 09:42:18;;;;;;;5.90;5.00;;;22.60;99.90;;;;;;5049478;28;20829;-50
2022/09/13 09:45:15;;;;;;;7.60;4.20;;;22.70;99.90;;;;;;5048951;28;20457;-52
2022/09/13 09:47:50;;;;;;;5.53;4.90;;;22.90;99.90;;;;;;5052103;28;20420;-52
2022/09/13 09:50:16;;;;;;;4.93;4.53;;;22.90;99.90;;;;;;5049514;28;20507;-50
2022/09/13 09:52:49;;;;;;;5.17;4.67;;;23.10;99.90;;;;;;5048683;28;20474;-49
2022/09/13 09:55:29;;;;;;;6.20;5.20;;;23.10;99.90;;;;;;5048753;28;20416;-49
2022/09/13 09:58:05;;;;;;;4.50;4.10;;;23.20;99.90;;;;;;5049290;28;20443;-53
2022/09/13 10:00:54;;;;;;;6.63;4.77;;;23.20;99.90;;;;;;5049236;28;20412;-49
2022/09/13 10:03:26;;;;;;;6.40;5.80;;;23.30;99.90;;;;;;5047470;28;20901;-49
2022/09/13 10:06:04;;;;;;;6.77;5.07;;;23.40;99.90;;;;;;5049050;28;20517;-47
2022/09/13 10:08:33;;;;;;;6.30;5.07;;;23.50;99.90;;;;;;5052757;28;20519;-50
2022/09/13 10:11:00;;;;;;;6.30;4.70;;;23.60;99.90;;;;;;5052832;28;20499;-50
2022/09/13 10:13:28;;;;;;;4.43;4.03;;;23.80;99.90;;;;;;5052296;28;20426;-48
2022/09/13 10:15:57;;;;;;;4.93;4.33;;;24.00;99.90;;;;;;5052833;28;20456;-47
2022/09/13 10:18:24;;;;;;;5.10;4.40;;;24.10;99.90;;;;;;5052927;28;20425;-49
2022/09/13 10:21:06;;;;;;;4.87;4.37;;;24.30;99.90;;;;;;5062968;28;20930;-50
2022/09/13 10:23:36;;;;;;;5.67;4.47;;;24.30;99.90;;;;;;5052027;28;20426;-49
2022/09/13 10:26:18;;;;;;;6.90;5.40;;;24.40;99.90;;;;;;5052666;28;20926;-51
2022/09/13 10:28:46;;;;;;;6.77;4.57;;;24.30;99.90;;;;;;5052711;28;20511;-51
2022/09/13 10:31:15;;;;;;;6.10;5.20;;;24.30;99.90;;;;;;5052551;28;20416;-46
2022/09/13 10:34:25;;;;;;;5.20;4.80;;;24.30;99.90;;;;;;5051680;28;20416;-47
2022/09/13 10:37:20;;;;;;;6.67;5.57;;;24.30;99.90;;;;;;5069480;28;20431;-53
2022/09/13 10:40:27;;;;;;;5.70;5.20;;;24.30;99.90;;;;;;5046798;28;20792;-53
2022/09/13 10:42:58;;;;;;;8.83;5.60;;;24.30;99.90;;;;;;5051498;28;20475;-52
2022/09/13 10:45:30;;;;;;;8.00;5.77;;;24.40;99.90;;;;;;5052398;28;20916;-52
2022/09/13 10:48:14;;;;;;;6.80;5.07;;;24.40;99.90;;;;;;5052550;28;20905;-52
2022/09/13 10:50:58;;;;;;;6.20;5.23;;;24.50;99.90;;;;;;5052238;28;20438;-48
2022/09/13 10:53:41;;;;;;;7.23;5.27;;;24.40;99.90;;;;;;5049949;28;20420;-48
2022/09/13 10:56:27;;;;;;;7.60;4.83;;;24.40;99.90;;;;;;5051636;28;20416;-49
2022/09/13 10:59:28;;;;;;;5.77;5.17;;;24.40;99.90;;;;;;5067242;28;20499;-50
2022/09/13 11:02:21;;;;;;;7.53;4.47;;;24.40;99.90;;;;;;5051819;28;20451;-52
2022/09/13 11:05:26;;;;;;;4.57;4.10;;;24.30;99.90;;;;;;5051252;28;20925;-54
2022/09/13 11:08:33;;;;;;;7.10;5.47;;;24.40;99.90;;;;;;5051953;28;20469;-51
2022/09/13 11:11:42;;;;;;;4.40;3.40;;;24.40;99.90;;;;;;5051215;28;20430;-54
2022/09/13 11:14:13;;;;;;;4.77;4.27;;;24.50;99.90;;;;;;5051236;28;20415;-51
2022/09/13 11:17:04;;;;;;;5.70;4.23;;;24.50;99.90;;;;;;5051476;28;20412;-50
2022/09/13 11:19:37;;;;;;;4.77;3.67;;;24.70;99.90;;;;;;5056164;28;20415;-52
2022/09/13 11:22:21;;;;;;;5.40;4.90;;;24.80;99.90;;;;;;5055999;28;20471;-50
2022/09/13 11:24:53;;;;;;;5.10;4.27;;;24.90;99.90;;;;;;5051110;28;20515;-52
2022/09/13 11:27:57;;;;;;;4.40;4.00;;;25.00;99.90;;;;;;5051395;28;20448;-51
2022/09/13 11:30:25;;;;;;;4.93;3.80;;;25.20;99.90;;;;;;5051268;28;20985;-54
2022/09/13 11:32:59;;;;;;;8.03;4.83;;;25.30;99.90;;;;;;5050649;28;20503;-49
2022/09/13 11:35:42;;;;;;;6.07;5.03;;;25.40;99.90;;;;;;5051354;28;20412;-51
2022/09/13 11:38:19;;;;;;;6.77;4.20;;;25.50;99.90;;;;;;5050378;28;20412;-50
2022/09/13 11:41:07;;;;;;;7.63;3.73;;;25.50;99.90;;;;;;5050770;28;20431;-53
2022/09/13 11:44:13;;;;;;;6.03;4.23;;;25.60;99.90;;;;;;5049997;28;20409;-50
2022/09/13 11:46:57;;;;;;;5.57;4.40;;;25.70;99.90;;;;;;5050713;28;20416;-49
2022/09/13 11:49:51;;;;;;;5.30;4.30;;;25.80;99.90;;;;;;5051147;28;21131;-52
2022/09/13 11:52:41;;;;;;;4.90;4.40;;;25.70;99.90;;;;;;5050933;28;20420;-49
2022/09/13 11:55:23;;;;;;;7.80;5.07;;;25.70;99.90;;;;;;5049424;28;21084;-51
2022/09/13 11:57:54;;;;;;;7.77;4.70;;;25.70;99.90;;;;;;5050625;28;20435;-50
2022/09/13 12:00:27;;;;;;;6.87;3.93;;;25.80;99.90;;;;;;5050866;28;20498;-52
2022/09/13 12:03:27;;;;;;;6.73;4.37;;;25.70;99.90;;;;;;5050071;28;20456;-48
2022/09/13 12:06:26;;;;;;;4.70;3.60;;;25.70;99.90;;;;;;5049320;28;20444;-51
2022/09/13 12:09:18;;;;;;;8.63;4.60;;;25.80;99.90;;;;;;5036960;28;20421;-51
2022/09/13 12:12:13;;;;;;;5.57;4.60;;;25.90;99.90;;;;;;5047228;28;20424;-49
2022/09/13 12:14:51;;;;;;;4.80;4.30;;;25.90;99.90;;;;;;5047843;28;20794;-47
2022/09/13 12:17:37;;;;;;;4.90;4.50;;;25.90;99.90;;;;;;5052605;28;20444;-50
2022/09/13 12:20:10;;;;;;;5.20;4.70;;;25.80;99.90;;;;;;5047215;28;20970;-49
2022/09/13 12:22:36;;;;;;;7.17;5.63;;;25.70;99.90;;;;;;5055624;28;20470;-52
2022/09/13 12:25:16;;;;;;;6.30;4.77;;;25.60;99.90;;;;;;5068887;28;20431;-49
2022/09/13 12:27:53;;;;;;;6.87;5.40;;;25.60;99.90;;;;;;5070352;28;20183;-50
2022/09/13 12:30:22;;;;;;;5.30;4.27;;;25.60;99.90;;;;;;5069596;28;20419;-53
2022/09/13 12:32:49;;;;;;;6.73;5.20;;;25.60;99.90;;;;;;5069605;28;20423;-52
2022/09/13 12:35:23;;;;;;;6.97;5.70;;;25.50;99.90;;;;;;5070228;28;21317;-47
2022/09/13 12:38:29;;;;;;;6.43;4.77;;;25.50;99.90;;;;;;5070075;28;20948;-51
2022/09/13 12:41:01;;;;;;;6.50;5.83;;;25.60;99.90;;;;;;5070047;28;20418;-50
2022/09/13 12:44:06;;;;;;;7.40;5.67;;;25.50;99.90;;;;;;5052841;28;20412;-47
2022/09/13 12:46:50;;;;;;;5.40;4.47;;;25.50;99.90;;;;;;5045568;28;20833;-49
2022/09/13 12:49:48;;;;;;;8.00;5.53;;;25.50;99.90;;;;;;5051644;28;20470;-53
2022/09/13 12:52:50;;;;;;;5.83;5.33;;;25.50;99.90;;;;;;5049253;28;20420;-51
2022/09/13 12:55:48;;;;;;;6.00;5.30;;;25.50;99.90;;;;;;5045780;28;20422;-51
2022/09/13 12:58:47;;;;;;;8.67;5.97;;;25.50;99.90;;;;;;5034651;28;20498;-49
2022/09/13 13:01:20;;;;;;;11.90;5.10;;;25.60;99.90;;;;;;5049522;28;20470;-48
2022/09/13 13:03:56;;;;;;;11.50;5.93;;;25.70;99.90;;;;;;5049447;28;20420;-48
2022/09/13 13:06:28;;;;;;;9.20;6.93;;;25.90;99.90;;;;;;5049566;28;20447;-51
2022/09/13 13:08:57;;;;;;;6.37;5.77;;;25.90;99.90;;;;;;5049837;28;20455;-49
2022/09/13 13:11:25;;;;;;;9.37;6.10;;;26.00;99.90;;;;;;5049688;28;20416;-50
2022/09/13 13:14:08;;;;;;;7.83;5.50;;;26.10;99.90;;;;;;5048980;28;20449;-53
2022/09/13 13:16:39;;;;;;;7.53;6.30;;;26.10;99.90;;;;;;5049892;28;20424;-49
2022/09/13 13:19:28;;;;;;;8.53;6.20;;;26.10;99.90;;;;;;5050882;28;20919;-51
2022/09/13 13:21:54;;;;;;;5.80;5.20;;;26.10;99.90;;;;;;5056018;28;20471;-48